Time;durP1;ratioP1;P1;durP2;ratioP2;P2;SDS_P1;SDS_P2;PMS_P1;PMS_P2;Temp;Humidity;BMP_temperature;BMP_pressure;BME280_temperature;BME280_humidity;BME280_pressure;Samples;Min_cycle;Max_cycle;Signal;HPM_P1;HPM_P2
2023/03/02 00:00:15;;;;;;;130.33;57.73;;;;;;;2.51;54.93;101202.50;4873802;28;97161;-85
2023/03/02 00:02:41;;;;;;;131.57;58.57;;;;;;;2.55;54.76;101214.63;4874403;28;97326;-84
2023/03/02 00:05:08;;;;;;;134.03;61.50;;;;;;;2.37;55.04;101192.81;4893926;28;100266;-85
2023/03/02 00:07:35;;;;;;;146.47;61.90;;;;;;;2.42;54.98;101211.88;4896190;28;100532;-85
2023/03/02 00:10:00;;;;;;;146.73;63.60;;;;;;;2.37;54.79;101194.53;4902465;28;96746;-85
2023/03/02 00:12:28;;;;;;;156.27;63.43;;;;;;;2.27;55.03;101178.00;4894169;28;97348;-85
2023/03/02 00:14:54;;;;;;;142.27;62.63;;;;;;;2.48;54.87;101205.91;4879352;28;101573;-85
2023/03/02 00:17:26;;;;;;;137.90;61.90;;;;;;;2.10;55.40;101202.78;4902756;28;97929;-85
2023/03/02 00:19:53;;;;;;;138.53;60.17;;;;;;;2.22;55.83;101208.16;4896162;28;97825;-84
2023/03/02 00:22:19;;;;;;;124.63;58.23;;;;;;;2.29;55.13;101202.19;4898047;28;97388;-85
2023/03/02 00:24:44;;;;;;;142.80;63.17;;;;;;;2.00;55.47;101200.03;4881481;28;101389;-84
2023/03/02 00:27:10;;;;;;;130.27;59.50;;;;;;;1.70;55.91;101155.56;4876764;28;100837;-85
2023/03/02 00:29:35;;;;;;;134.90;60.70;;;;;;;1.74;56.26;101172.88;4894055;28;96792;-85
2023/03/02 00:32:02;;;;;;;135.27;58.73;;;;;;;1.78;56.56;101187.63;4889162;28;97583;-85
2023/03/02 00:34:31;;;;;;;128.40;59.20;;;;;;;1.70;56.35;101187.50;4895015;28;97458;-85
2023/03/02 00:36:57;;;;;;;129.87;57.23;;;;;;;1.99;55.67;101195.72;4895411;28;98135;-85
2023/03/02 00:39:23;;;;;;;132.17;58.60;;;;;;;1.95;55.74;101160.28;4879837;28;97338;-85
2023/03/02 00:41:48;;;;;;;130.53;57.20;;;;;;;2.20;55.59;101202.94;4889276;28;97131;-84
2023/03/02 00:44:18;;;;;;;130.80;57.33;;;;;;;2.14;55.98;101201.97;4893813;28;101879;-85
2023/03/02 00:46:44;;;;;;;114.20;55.47;;;;;;;2.21;55.50;101202.09;4879374;28;101206;-84
2023/03/02 00:49:10;;;;;;;116.20;54.40;;;;;;;2.14;55.50;101201.97;4880122;28;97935;-85
2023/03/02 00:51:36;;;;;;;108.40;51.00;;;;;;;2.21;55.46;101193.44;4894164;28;98228;-85
2023/03/02 00:54:02;;;;;;;127.40;56.90;;;;;;;2.09;56.17;101188.09;4881366;28;101792;-85
2023/03/02 00:56:28;;;;;;;108.97;54.10;;;;;;;2.10;56.15;101188.13;4896728;28;99768;-85
2023/03/02 00:58:53;;;;;;;102.53;49.27;;;;;;;1.80;56.19;101168.69;4895588;28;96780;-84
2023/03/02 01:01:20;;;;;;;102.43;51.07;;;;;;;2.02;56.18;101197.50;4880363;28;97231;-85
2023/03/02 01:03:49;;;;;;;107.80;51.13;;;;;;;1.96;56.04;101193.09;4895225;28;101604;-84
2023/03/02 01:06:17;;;;;;;120.10;53.93;;;;;;;1.86;56.18;101165.28;4891425;28;101549;-85
2023/03/02 01:08:43;;;;;;;112.33;52.77;;;;;;;1.83;56.04;101154.03;4908365;28;97445;-84
2023/03/02 01:11:14;;;;;;;114.63;54.83;;;;;;;1.67;56.79;101161.56;4890848;28;97288;-85
2023/03/02 01:13:39;;;;;;;109.17;53.97;;;;;;;1.91;56.19;101178.31;4881700;28;100288;-85
2023/03/02 01:16:05;;;;;;;108.90;54.07;;;;;;;1.97;56.23;101168.91;4895729;28;100371;-84
2023/03/02 01:18:33;;;;;;;115.67;55.00;;;;;;;1.85;56.04;101178.25;4880542;28;97076;-85
2023/03/02 01:21:04;;;;;;;113.13;52.60;;;;;;;1.73;56.69;101166.84;4895144;28;96714;-85
2023/03/02 01:23:30;;;;;;;103.07;50.87;;;;;;;1.77;56.68;101154.81;4913146;28;98476;-84
2023/03/02 01:25:55;;;;;;;107.53;51.07;;;;;;;1.70;56.23;101142.63;4894123;28;101326;-84
2023/03/02 01:28:21;;;;;;;106.47;51.70;;;;;;;1.72;55.96;101136.63;4877238;28;97230;-85
2023/03/02 01:30:46;;;;;;;110.70;52.57;;;;;;;1.93;56.30;101146.44;4891146;28;97373;-85
2023/03/02 01:33:12;;;;;;;106.20;51.40;;;;;;;1.97;55.75;101150.78;4877610;28;100065;-84
2023/03/02 01:35:38;;;;;;;109.80;54.13;;;;;;;1.85;55.91;101122.13;4881593;28;100897;-84
2023/03/02 01:38:03;;;;;;;108.43;51.13;;;;;;;1.85;55.92;101140.25;4876803;28;99600;-85
2023/03/02 01:40:29;;;;;;;99.90;51.07;;;;;;;1.80;55.92;101132.44;4907449;28;97364;-84
2023/03/02 01:42:57;;;;;;;102.63;52.07;;;;;;;1.86;55.92;101115.25;4873630;28;101782;-84
2023/03/02 01:46:09;;;;;;;108.17;51.90;;;;;;;2.03;55.67;101135.34;4896661;28;98412;-85
2023/03/02 01:48:52;;;;;;;102.60;49.73;;;;;;;1.86;55.71;101105.75;4805971;29;97901;-84
2023/03/02 01:51:32;;;;;;;107.03;52.63;;;;;;;1.76;56.09;101111.66;4914788;28;96706;-85
2023/03/02 01:54:01;;;;;;;109.73;51.53;;;;;;;1.81;56.44;101121.25;4877348;28;101643;-84
2023/03/02 01:56:30;;;;;;;109.47;53.20;;;;;;;1.56;56.35;101116.53;4898982;28;100665;-85
2023/03/02 01:59:02;;;;;;;114.77;52.27;;;;;;;1.44;57.01;101132.75;4876990;28;96973;-85
2023/03/02 02:01:29;;;;;;;105.70;53.05;;;;;;;1.41;57.37;101134.41;4890779;28;97328;-85
2023/03/02 02:03:55;;;;;;;110.63;50.90;;;;;;;1.52;56.60;101125.13;4891817;28;101174;-84
2023/03/02 02:06:41;;;;;;;108.97;52.57;;;;;;;1.67;56.65;101114.13;4887369;28;100217;-86
2023/03/02 02:09:10;;;;;;;106.23;52.23;;;;;;;1.76;56.26;101117.69;4907861;28;97398;-85
2023/03/02 02:11:36;;;;;;;115.87;53.73;;;;;;;1.69;55.91;101107.25;4872482;28;97306;-85
2023/03/02 02:14:02;;;;;;;108.40;53.20;;;;;;;1.77;56.05;101113.38;4878473;28;101520;-84
2023/03/02 02:16:30;;;;;;;115.13;52.97;;;;;;;1.56;56.20;101086.34;4888233;28;101462;-84
2023/03/02 02:18:56;;;;;;;121.20;57.67;;;;;;;1.64;56.33;101104.59;4895727;28;97061;-84
2023/03/02 02:21:23;;;;;;;124.67;59.63;;;;;;;1.44;56.85;101101.69;4896939;28;97260;-85
2023/03/02 02:24:15;;;;;;;123.87;63.00;;;;;;;1.42;56.88;101103.38;4880680;28;101316;-85
2023/03/02 02:26:47;;;;;;;131.40;63.10;;;;;;;1.53;56.85;101116.50;4886382;28;100675;-85
2023/03/02 02:29:21;;;;;;;121.40;58.75;;;;;;;1.53;56.61;101091.47;4891651;28;97561;-84
2023/03/02 02:32:29;;;;;;;115.50;56.23;;;;;;;1.56;56.70;101104.47;4870284;28;97097;-84
2023/03/02 02:35:19;;;;;;;121.10;57.70;;;;;;;1.45;57.06;101105.13;4910508;28;98365;-84
2023/03/02 02:37:50;;;;;;;127.23;58.17;;;;;;;1.37;56.58;101063.66;4895801;28;99913;-85
2023/03/02 02:40:35;;;;;;;113.20;56.50;;;;;;;1.56;56.28;101104.47;4895294;28;96877;-85
2023/03/02 02:43:01;;;;;;;110.30;55.97;;;;;;;1.58;56.26;101097.59;4888467;28;96975;-85
2023/03/02 02:45:28;;;;;;;112.07;54.70;;;;;;;1.53;56.30;101093.19;4876534;28;101345;-85
2023/03/02 02:47:54;;;;;;;120.73;56.03;;;;;;;1.48;56.46;101085.34;4885032;28;101674;-85
2023/03/02 02:50:31;;;;;;;112.63;53.87;;;;;;;1.33;56.88;101077.38;4904595;28;97525;-85
2023/03/02 02:53:02;;;;;;;108.43;55.60;;;;;;;1.45;56.12;101074.97;4881442;28;97350;-85
2023/03/02 02:55:28;;;;;;;116.37;55.40;;;;;;;1.39;56.99;101095.56;4884854;28;101685;-85
2023/03/02 02:57:57;;;;;;;116.37;54.97;;;;;;;1.20;56.95;101089.25;4888628;28;101042;-85
2023/03/02 03:00:22;;;;;;;118.27;54.80;;;;;;;1.01;57.10;101069.09;4886999;28;97477;-85
2023/03/02 03:03:02;;;;;;;114.30;53.27;;;;;;;1.05;57.59;101092.44;4897788;28;97227;-85
2023/03/02 03:05:28;;;;;;;118.47;55.20;;;;;;;1.20;57.40;101088.38;4910484;28;98164;-84
2023/03/02 03:08:08;;;;;;;111.97;52.53;;;;;;;1.34;57.20;101094.66;4895878;28;97024;-84
2023/03/02 03:10:38;;;;;;;114.57;55.23;;;;;;;1.39;56.77;101097.28;4895662;28;97293;-83
2023/03/02 03:13:07;;;;;;;122.80;55.67;;;;;;;1.19;57.22;101084.03;4894655;28;97207;-85
2023/03/02 03:15:33;;;;;;;107.30;52.60;;;;;;;1.25;57.45;101082.44;4892378;28;101891;-84
2023/03/02 03:17:59;;;;;;;115.70;57.00;;;;;;;1.16;56.96;101084.84;4895296;28;98454;-85
2023/03/02 03:20:27;;;;;;;114.13;56.30;;;;;;;1.18;56.76;101078.00;4889872;28;97616;-85
2023/03/02 03:22:53;;;;;;;113.30;53.57;;;;;;;1.26;56.97;101088.47;4892420;28;97375;-84
2023/03/02 03:25:20;;;;;;;116.67;56.17;;;;;;;1.26;56.76;101067.78;4894577;28;100574;-85
2023/03/02 03:27:47;;;;;;;112.73;55.33;;;;;;;1.24;56.41;101083.25;4896359;28;101556;-85
2023/03/02 03:30:14;;;;;;;115.57;56.43;;;;;;;1.17;57.23;101091.78;4879433;28;97219;-85
2023/03/02 03:32:40;;;;;;;117.07;58.73;;;;;;;1.29;56.75;101084.22;4871878;28;97154;-85
2023/03/02 03:35:09;;;;;;;124.33;63.50;;;;;;;1.30;56.47;101088.53;4879269;28;100397;-85
2023/03/02 03:37:36;;;;;;;132.70;65.43;;;;;;;0.98;56.73;101085.41;4876930;28;101208;-85
2023/03/02 03:40:02;;;;;;;123.13;61.30;;;;;;;1.05;56.83;101082.09;4884069;28;97637;-85
2023/03/02 03:42:28;;;;;;;118.50;59.77;;;;;;;0.98;57.13;101097.47;4865989;28;98080;-86
2023/03/02 03:44:56;;;;;;;121.43;60.80;;;;;;;0.98;57.59;101092.31;4884659;28;101980;-84
2023/03/02 03:47:22;;;;;;;121.40;58.07;;;;;;;1.04;57.51;101087.22;4893093;28;101713;-85
2023/03/02 03:49:49;;;;;;;120.00;59.80;;;;;;;0.89;57.24;101056.81;4898047;28;97312;-85
2023/03/02 03:52:14;;;;;;;122.00;60.60;;;;;;;1.01;57.08;101076.84;4883112;28;97219;-85
2023/03/02 03:54:41;;;;;;;122.07;59.07;;;;;;;0.96;57.73;101081.06;4893558;28;101427;-85
2023/03/02 03:57:06;;;;;;;133.17;62.67;;;;;;;0.90;57.42;101076.66;4878560;28;101163;-85
2023/03/02 03:59:34;;;;;;;132.37;64.47;;;;;;;0.94;57.81;101080.19;4882032;28;97276;-85
2023/03/02 04:02:02;;;;;;;143.87;65.83;;;;;;;0.75;57.44;101061.75;4882900;28;97203;-85
2023/03/02 04:04:33;;;;;;;131.77;62.40;;;;;;;0.82;57.43;101055.84;4898727;28;102168;-85
2023/03/02 04:07:01;;;;;;;130.27;65.23;;;;;;;0.99;56.85;101066.50;4892516;28;101891;-84
2023/03/02 04:09:28;;;;;;;128.90;62.60;;;;;;;1.12;56.96;101083.94;4879451;28;96824;-85
2023/03/02 04:11:55;;;;;;;130.13;65.20;;;;;;;0.95;57.55;101066.41;4877703;28;97291;-84
2023/03/02 04:14:22;;;;;;;135.13;65.20;;;;;;;1.01;57.33;101062.19;4892431;28;101379;-84
2023/03/02 04:16:49;;;;;;;126.27;64.70;;;;;;;1.03;57.11;101083.78;4888152;28;99929;-84
2023/03/02 04:19:16;;;;;;;133.93;62.73;;;;;;;0.81;56.81;101033.41;4884282;28;97282;-84
2023/03/02 04:21:45;;;;;;;131.13;63.33;;;;;;;0.90;57.33;101068.88;4881644;28;97384;-85
2023/03/02 04:24:12;;;;;;;128.03;62.87;;;;;;;0.80;57.32;101048.91;4881679;28;101206;-84
2023/03/02 04:26:39;;;;;;;132.83;67.37;;;;;;;0.75;57.44;101050.53;4895681;28;101395;-86
2023/03/02 04:29:05;;;;;;;135.63;65.03;;;;;;;0.90;57.67;101077.53;4884445;28;97163;-84
2023/03/02 04:31:32;;;;;;;129.60;64.17;;;;;;;0.92;57.08;101084.44;4876571;28;97253;-84
2023/03/02 04:33:59;;;;;;;140.27;66.83;;;;;;;0.64;57.94;101048.66;4887743;28;98078;-84
2023/03/02 04:36:25;;;;;;;139.27;65.13;;;;;;;0.83;57.62;101073.09;4891009;28;98085;-85
2023/03/02 04:38:51;;;;;;;140.87;66.63;;;;;;;0.84;58.18;101072.28;4879051;28;97331;-84
2023/03/02 04:41:18;;;;;;;131.53;67.17;;;;;;;0.82;58.18;101073.09;4871583;28;97203;-84
2023/03/02 04:43:44;;;;;;;136.97;65.70;;;;;;;0.71;57.82;101041.00;4874744;28;101145;-84
2023/03/02 04:46:22;;;;;;;134.80;64.63;;;;;;;0.70;58.30;101047.88;4883518;28;101353;-83
2023/03/02 04:48:47;;;;;;;134.80;65.20;;;;;;;0.71;57.89;101064.25;4889396;28;97120;-83
2023/03/02 04:51:22;;;;;;;138.73;64.97;;;;;;;0.67;58.00;101064.22;4893433;28;97270;-84
2023/03/02 04:53:50;;;;;;;140.97;64.00;;;;;;;0.32;58.46;101034.25;4881913;28;101540;-84
2023/03/02 04:56:15;;;;;;;133.00;61.37;;;;;;;0.49;58.39;101050.06;4897891;28;101300;-84
2023/03/02 04:58:41;;;;;;;144.27;63.07;;;;;;;0.65;57.81;101054.69;4894819;28;97019;-84
2023/03/02 05:01:08;;;;;;;133.67;66.43;;;;;;;0.56;58.24;101050.22;4886513;28;97259;-84
2023/03/02 05:03:34;;;;;;;130.30;64.03;;;;;;;0.52;58.11;101069.06;4883827;28;99576;-84
2023/03/02 05:06:01;;;;;;;131.83;63.53;;;;;;;0.43;58.60;101067.19;4898801;28;100836;-83
2023/03/02 05:08:26;;;;;;;130.13;62.60;;;;;;;0.43;58.58;101059.44;4875805;28;97029;-84
2023/03/02 05:10:52;;;;;;;130.07;63.07;;;;;;;0.53;58.22;101062.22;4869009;28;96847;-84
2023/03/02 05:13:17;;;;;;;130.63;63.87;;;;;;;0.62;57.95;101073.59;4891339;28;101516;-84
2023/03/02 05:15:43;;;;;;;138.00;61.93;;;;;;;0.63;57.96;101077.03;4909148;28;97972;-84
2023/03/02 05:18:10;;;;;;;128.60;61.67;;;;;;;0.44;58.23;101048.28;4897956;28;97660;-84
2023/03/02 05:20:36;;;;;;;135.03;62.73;;;;;;;0.34;58.56;101055.81;4901490;28;97038;-84
2023/03/02 05:23:05;;;;;;;127.77;62.60;;;;;;;0.42;58.47;101056.84;4899429;28;101607;-84
2023/03/02 05:25:33;;;;;;;138.60;64.97;;;;;;;0.48;59.05;101084.50;4900385;28;102388;-85
2023/03/02 05:27:59;;;;;;;130.90;62.20;;;;;;;0.25;58.39;101046.19;4871634;28;97251;-85
2023/03/02 05:30:25;;;;;;;130.77;62.40;;;;;;;0.48;58.58;101066.41;4870485;28;97275;-86
2023/03/02 05:32:51;;;;;;;135.27;62.93;;;;;;;0.25;58.61;101061.66;4915384;28;98393;-85
2023/03/02 05:35:18;;;;;;;136.10;64.00;;;;;;;0.20;59.15;101076.19;4877672;28;100249;-84
2023/03/02 05:37:43;;;;;;;132.50;62.50;;;;;;;0.26;59.04;101071.16;4882619;28;97036;-85
2023/03/02 05:40:15;;;;;;;128.27;63.00;;;;;;;0.27;59.30;101064.31;4893211;28;97112;-83
2023/03/02 05:42:42;;;;;;;135.20;63.92;;;;;;;0.18;58.89;101063.28;4908765;28;98273;-85
2023/03/02 05:45:12;;;;;;;128.00;59.20;;;;;;;0.13;59.60;101057.13;4908356;28;98310;-85
2023/03/02 05:47:38;;;;;;;127.97;62.23;;;;;;;0.36;59.10;101067.06;4875989;28;97095;-85
2023/03/02 05:50:04;;;;;;;129.33;62.97;;;;;;;0.41;58.70;101068.03;4890042;28;96849;-85
2023/03/02 05:52:29;;;;;;;128.03;61.83;;;;;;;0.43;58.99;101064.59;4875614;28;101653;-86
2023/03/02 05:54:55;;;;;;;125.13;59.83;;;;;;;0.34;59.11;101074.75;4889777;28;100930;-85
2023/03/02 05:57:20;;;;;;;143.47;65.37;;;;;;;0.38;59.28;101079.16;4870648;28;97663;-84
2023/03/02 05:59:46;;;;;;;125.77;60.57;;;;;;;0.38;59.09;101076.59;4890649;28;97173;-86
2023/03/02 06:02:12;;;;;;;124.23;61.23;;;;;;;0.40;59.29;101082.63;4871679;28;101622;-82
2023/03/02 06:04:42;;;;;;;130.13;65.23;;;;;;;0.34;59.18;101082.50;4879693;28;99682;-82
2023/03/02 06:07:11;;;;;;;134.40;61.43;;;;;;;0.28;59.46;101086.69;4866359;28;97765;-82
2023/03/02 06:09:37;;;;;;;124.43;61.83;;;;;;;0.25;59.72;101076.31;4887919;28;98116;-82
2023/03/02 06:12:04;;;;;;;130.07;63.07;;;;;;;0.41;59.58;101092.13;4879782;28;101612;-81
2023/03/02 06:14:29;;;;;;;124.20;61.63;;;;;;;0.63;59.18;101100.28;4886871;28;101380;-81
2023/03/02 06:16:55;;;;;;;130.13;62.13;;;;;;;0.69;58.99;101084.91;4872019;28;97338;-81
2023/03/02 06:19:20;;;;;;;132.10;63.27;;;;;;;0.74;58.84;101072.06;4885121;28;97171;-81
2023/03/02 06:21:46;;;;;;;125.13;61.00;;;;;;;0.96;58.66;101092.28;4889494;28;101536;-80
2023/03/02 06:24:11;;;;;;;121.53;61.60;;;;;;;1.06;58.45;101093.31;4870196;28;101640;-81
2023/03/02 06:26:37;;;;;;;133.53;60.70;;;;;;;1.16;57.99;101082.25;4891211;28;97426;-85
2023/03/02 06:29:04;;;;;;;120.47;59.40;;;;;;;1.41;57.70;101099.06;4890030;28;97756;-85
2023/03/02 06:31:30;;;;;;;127.47;61.03;;;;;;;1.44;58.02;101090.47;4903650;28;97569;-82
2023/03/02 06:33:56;;;;;;;131.83;63.63;;;;;;;1.57;57.66;101101.03;4887516;28;101534;-83
2023/03/02 06:36:22;;;;;;;131.23;62.67;;;;;;;1.69;57.55;101095.19;4875538;28;97670;-83
2023/03/02 06:38:47;;;;;;;125.87;62.03;;;;;;;1.79;57.34;101097.03;4887060;28;96877;-83
2023/03/02 06:41:14;;;;;;;129.13;60.47;;;;;;;1.91;57.07;101087.69;4887818;28;101416;-79
2023/03/02 06:43:39;;;;;;;121.80;62.00;;;;;;;2.09;57.28;101097.44;4872519;28;101758;-82
2023/03/02 06:46:05;;;;;;;137.47;66.53;;;;;;;2.11;57.14;101090.56;4888143;28;97318;-79
2023/03/02 06:48:31;;;;;;;140.27;68.83;;;;;;;2.15;57.62;101102.69;4893671;28;97462;-81
2023/03/02 06:50:56;;;;;;;135.73;69.47;;;;;;;2.20;56.85;101094.13;4887131;28;98306;-79
2023/03/02 06:53:22;;;;;;;136.40;70.53;;;;;;;2.35;56.76;101101.22;4889542;28;102170;-79
2023/03/02 06:55:48;;;;;;;137.60;72.83;;;;;;;2.38;57.03;101100.38;4905750;28;96821;-80
2023/03/02 06:58:14;;;;;;;136.40;72.13;;;;;;;2.60;56.84;101106.69;4901453;28;96862;-79
2023/03/02 07:00:39;;;;;;;131.70;72.20;;;;;;;2.77;56.76;101117.25;4875981;28;101169;-80
2023/03/02 07:03:05;;;;;;;142.00;75.77;;;;;;;2.99;56.21;101113.13;4903123;28;101818;-80
2023/03/02 07:05:31;;;;;;;142.60;74.80;;;;;;;3.00;56.15;101088.94;4903024;28;97176;-81
2023/03/02 07:08:00;;;;;;;148.77;79.13;;;;;;;3.33;55.04;101102.19;4883183;28;97240;-80
2023/03/02 07:10:25;;;;;;;152.63;77.83;;;;;;;3.26;54.96;101073.56;4884607;28;101610;-81
2023/03/02 07:12:52;;;;;;;147.90;80.27;;;;;;;3.43;55.15;101068.50;4890377;28;101093;-81
2023/03/02 07:15:18;;;;;;;160.57;82.57;;;;;;;3.73;54.47;101097.28;4889786;28;97224;-80
2023/03/02 07:17:44;;;;;;;161.00;84.43;;;;;;;3.91;54.52;101096.53;4887945;28;97384;-80
2023/03/02 07:20:15;;;;;;;157.13;78.77;;;;;;;4.02;54.13;101081.00;4867387;28;101355;-80
2023/03/02 07:22:42;;;;;;;153.02;77.00;;;;;;;4.42;53.52;101091.53;4879892;28;101256;-80
2023/03/02 07:25:08;;;;;;;151.17;75.53;;;;;;;4.42;52.99;101079.44;4875007;28;97745;-80
2023/03/02 07:27:34;;;;;;;142.27;75.07;;;;;;;4.65;52.73;101095.09;4892176;28;96870;-80
2023/03/02 07:29:59;;;;;;;150.10;75.33;;;;;;;4.88;52.97;101089.94;4906028;28;101326;-80
2023/03/02 07:32:25;;;;;;;145.03;75.63;;;;;;;4.90;52.60;101082.13;4890991;28;101364;-80
2023/03/02 07:34:51;;;;;;;134.23;73.93;;;;;;;5.22;51.20;101077.81;4886778;28;97795;-80
2023/03/02 07:37:16;;;;;;;133.80;73.10;;;;;;;5.36;51.52;101075.22;4878356;28;97147;-80
2023/03/02 07:39:42;;;;;;;146.90;73.40;;;;;;;5.54;50.84;101078.66;4895270;28;97986;-80
2023/03/02 07:42:10;;;;;;;130.50;70.57;;;;;;;5.64;50.43;101081.28;4889367;28;101551;-80
2023/03/02 07:44:35;;;;;;;130.80;74.20;;;;;;;5.78;50.52;101075.16;4909770;28;97540;-80
2023/03/02 07:47:01;;;;;;;134.20;72.90;;;;;;;6.06;50.51;101079.44;4890227;28;97352;-80
2023/03/02 07:49:27;;;;;;;139.10;73.60;;;;;;;6.19;49.99;101066.34;4877527;28;101559;-82
2023/03/02 07:51:53;;;;;;;134.50;74.70;;;;;;;6.68;49.72;101084.38;4889092;28;101360;-80
2023/03/02 07:54:19;;;;;;;130.83;75.23;;;;;;;6.58;48.93;101075.75;4876023;28;96985;-81
2023/03/02 07:56:44;;;;;;;137.43;76.83;;;;;;;6.69;48.42;101086.09;4904946;28;97582;-80
2023/03/02 07:59:13;;;;;;;139.57;76.77;;;;;;;6.84;48.58;101078.19;4894449;28;101583;-79
2023/03/02 08:01:39;;;;;;;142.50;75.53;;;;;;;6.88;47.80;101079.03;4886653;28;101392;-85
2023/03/02 08:04:04;;;;;;;133.48;74.80;;;;;;;7.31;47.77;101082.19;4868260;28;97186;-83
2023/03/02 08:06:30;;;;;;;141.18;75.63;;;;;;;7.65;47.58;101076.63;4884128;28;97275;-83
2023/03/02 08:08:56;;;;;;;122.73;70.47;;;;;;;7.61;46.00;101057.50;4893918;28;98530;-85
2023/03/02 08:11:21;;;;;;;112.88;66.43;;;;;;;7.80;45.92;101078.25;4874550;28;101302;-81
2023/03/02 08:13:47;;;;;;;119.22;66.65;;;;;;;7.84;45.25;101069.47;4884752;28;96812;-83
2023/03/02 08:16:14;;;;;;;110.53;64.20;;;;;;;8.25;45.21;101070.75;4880979;28;96781;-82
2023/03/02 08:18:40;;;;;;;111.28;65.75;;;;;;;8.06;44.87;101054.44;4866722;28;100491;-81
2023/03/02 08:21:22;;;;;;;107.70;63.50;;;;;;;8.63;44.12;101067.66;4872739;28;101652;-79
2023/03/02 08:23:48;;;;;;;108.28;63.83;;;;;;;9.16;44.00;101068.59;4891692;28;97102;-82
2023/03/02 08:26:14;;;;;;;103.40;59.10;;;;;;;9.11;42.96;101064.31;4871917;28;97120;-82
2023/03/02 08:28:40;;;;;;;103.13;61.03;;;;;;;9.38;42.55;101056.00;4903673;28;101302;-81
2023/03/02 08:31:06;;;;;;;97.80;56.38;;;;;;;9.68;41.68;101062.41;4875093;28;101177;-81
2023/03/02 08:33:32;;;;;;;97.82;56.15;;;;;;;9.96;41.26;101061.91;4889201;28;97572;-81
2023/03/02 08:36:04;;;;;;;92.47;56.65;;;;;;;9.94;40.20;101063.69;4902730;28;97348;-81
2023/03/02 08:38:30;;;;;;;89.70;56.47;;;;;;;10.03;40.05;101052.16;4887765;28;101754;-81
2023/03/02 08:40:55;;;;;;;88.72;53.88;;;;;;;10.60;40.04;101067.59;4890993;28;102037;-81
2023/03/02 08:43:23;;;;;;;98.07;57.28;;;;;;;11.21;38.91;101060.91;4879454;28;97361;-79
2023/03/02 08:45:53;;;;;;;89.25;54.28;;;;;;;11.49;37.28;101055.81;4897702;28;96855;-84
2023/03/02 08:48:19;;;;;;;87.65;54.67;;;;;;;11.39;37.56;101064.81;4894198;28;101417;-84
2023/03/02 08:50:57;;;;;;;76.53;49.03;;;;;;;11.81;37.38;101048.84;4880447;28;100357;-85
2023/03/02 08:53:22;;;;;;;73.10;47.63;;;;;;;12.50;36.14;101059.16;4871485;28;97642;-84
2023/03/02 08:55:48;;;;;;;73.72;46.65;;;;;;;12.57;35.22;101050.16;4905507;28;99382;-85
2023/03/02 08:58:13;;;;;;;77.40;47.08;;;;;;;12.45;35.36;101052.25;4897987;28;98495;-85
2023/03/02 09:00:39;;;;;;;72.90;45.42;;;;;;;12.60;34.29;101032.50;4871738;28;101611;-84
2023/03/02 09:03:04;;;;;;;73.05;46.20;;;;;;;13.27;35.34;101024.19;4895567;28;97019;-84
2023/03/02 09:05:30;;;;;;;69.50;46.67;;;;;;;14.04;33.85;101038.16;4897805;28;97464;-85
2023/03/02 09:07:56;;;;;;;55.53;37.38;;;;;;;15.17;32.07;101010.84;4879145;28;101820;-85
2023/03/02 09:10:21;;;;;;;67.43;44.35;;;;;;;16.01;30.53;101023.06;4891907;28;101736;-84
2023/03/02 09:12:47;;;;;;;70.32;45.58;;;;;;;16.63;30.12;101022.84;4907217;28;96740;-84
2023/03/02 09:15:12;;;;;;;74.05;46.95;;;;;;;16.54;29.84;101021.47;4891701;28;96910;-84
2023/03/02 09:17:38;;;;;;;66.15;43.78;;;;;;;17.36;29.31;101007.72;4876493;28;101448;-84
2023/03/02 09:20:04;;;;;;;68.22;42.60;;;;;;;17.57;28.72;101016.38;4908842;28;101589;-84
2023/03/02 09:22:30;;;;;;;54.42;39.42;;;;;;;17.51;27.77;101009.63;4888856;28;97987;-85
2023/03/02 09:24:55;;;;;;;55.00;36.45;;;;;;;18.97;26.56;100998.97;4894612;28;97332;-84
2023/03/02 09:27:21;;;;;;;59.95;36.60;;;;;;;18.39;26.38;100995.16;4895390;28;101402;-84
2023/03/02 09:29:46;;;;;;;50.15;32.08;;;;;;;18.69;25.79;101003.19;4880069;28;101715;-82
2023/03/02 09:32:14;;;;;;;50.92;33.95;;;;;;;18.29;25.75;100985.97;4896561;28;97258;-82
2023/03/02 09:34:40;;;;;;;55.40;35.60;;;;;;;18.98;25.85;101006.84;4884098;28;97348;-83
2023/03/02 09:37:05;;;;;;;51.25;34.78;;;;;;;18.67;25.67;101001.56;4880452;28;100279;-84
2023/03/02 09:39:31;;;;;;;39.70;29.17;;;;;;;18.97;25.34;101001.66;4893685;28;101668;-82
2023/03/02 09:41:59;;;;;;;39.17;30.30;;;;;;;19.03;24.83;100997.78;4896475;28;97203;-82
2023/03/02 09:44:50;;;;;;;44.08;31.58;;;;;;;18.34;25.54;100994.53;4912088;28;97392;-83
2023/03/02 09:47:31;;;;;;;48.28;32.40;;;;;;;18.71;25.90;101003.13;4878157;28;101352;-82
2023/03/02 09:50:33;;;;;;;45.20;30.25;;;;;;;19.30;24.54;100976.63;4896622;28;99318;-84
2023/03/02 09:53:17;;;;;;;45.05;28.88;;;;;;;19.10;24.64;100983.13;4896483;28;97090;-82
2023/03/02 09:55:44;;;;;;;40.88;26.48;;;;;;;19.97;24.18;100983.16;4916789;28;96825;-82
2023/03/02 09:58:18;;;;;;;40.35;26.02;;;;;;;19.54;24.15;100980.47;4884106;28;101452;-82
2023/03/02 10:00:44;;;;;;;36.50;24.70;;;;;;;19.29;25.07;100986.44;4895699;28;101171;-82
2023/03/02 10:03:22;;;;;;;36.88;28.05;;;;;;;20.18;24.26;100988.94;4907679;28;96826;-81
2023/03/02 10:05:50;;;;;;;39.10;25.98;;;;;;;19.42;23.84;100981.22;4878050;28;97388;-82
2023/03/02 10:08:23;;;;;;;37.15;26.27;;;;;;;18.96;25.13;100974.16;4892151;28;101701;-82
2023/03/02 10:11:07;;;;;;;42.28;27.08;;;;;;;18.75;25.06;100986.91;4875320;28;101609;-84
2023/03/02 10:13:48;;;;;;;34.65;24.75;;;;;;;18.53;25.28;100989.06;4888390;28;97762;-82
2023/03/02 10:16:31;;;;;;;36.55;27.17;;;;;;;17.69;25.85;100980.38;4894132;28;97185;-84
2023/03/02 10:19:24;;;;;;;35.42;23.65;;;;;;;17.29;26.26;100990.44;4919217;28;98037;-81
2023/03/02 10:21:57;;;;;;;32.60;22.15;;;;;;;16.84;26.69;100981.19;4897765;28;97917;-84
2023/03/02 10:24:29;;;;;;;32.70;21.25;;;;;;;16.25;27.16;100986.63;4886460;28;96851;-85
2023/03/02 10:26:59;;;;;;;30.80;21.17;;;;;;;16.00;27.62;100983.44;4879626;28;97046;-84
2023/03/02 10:29:33;;;;;;;35.72;24.15;;;;;;;15.80;27.84;100948.13;4907885;28;100403;-84
2023/03/02 10:32:06;;;;;;;31.13;23.23;;;;;;;15.72;27.77;100962.63;4904265;28;100231;-85
2023/03/02 10:34:34;;;;;;;32.03;22.67;;;;;;;15.45;28.49;100976.13;4894892;28;96794;-84
2023/03/02 10:37:01;;;;;;;32.17;22.92;;;;;;;15.14;28.92;100974.81;4892029;28;97349;-85
2023/03/02 10:39:26;;;;;;;34.08;22.77;;;;;;;14.68;29.75;100978.50;4891719;28;101329;-84
2023/03/02 10:41:58;;;;;;;27.80;20.38;;;;;;;14.91;28.88;100974.91;4879039;28;101778;-85
2023/03/02 10:44:39;;;;;;;35.08;24.05;;;;;;;14.58;29.50;100977.19;4887752;28;97150;-84
2023/03/02 10:47:06;;;;;;;38.33;22.20;;;;;;;14.29;30.24;100973.88;4888670;28;97303;-78
2023/03/02 10:49:40;;;;;;;31.35;19.88;;;;;;;13.84;30.18;100965.91;4878998;28;100984;-89
2023/03/02 10:52:18;;;;;;;34.60;20.73;;;;;;;13.59;31.50;100964.19;4892385;28;99681;-84
2023/03/02 10:54:44;;;;;;;31.92;20.08;;;;;;;13.64;31.07;100964.84;4880324;28;96815;-88
2023/03/02 10:57:28;;;;;;;35.10;20.83;;;;;;;13.01;31.91;100963.56;4898290;28;97248;-90
2023/03/02 11:00:00;;;;;;;34.28;20.73;;;;;;;12.99;31.65;100952.22;4902076;28;101775;-88
2023/03/02 11:02:27;;;;;;;26.52;17.60;;;;;;;12.83;32.07;100947.47;4883738;28;100194;-89
2023/03/02 11:05:19;;;;;;;26.10;17.63;;;;;;;12.48;32.45;100948.63;4879953;28;97459;-87
2023/03/02 11:08:07;;;;;;;33.53;22.40;;;;;;;12.19;33.64;100947.75;4889331;28;97327;-89
2023/03/02 11:10:35;;;;;;;39.63;22.88;;;;;;;11.56;34.13;100923.25;4891377;28;100319;-89
2023/03/02 11:13:02;;;;;;;33.75;23.08;;;;;;;11.35;35.00;100944.91;4897048;28;99941;-87